createdAt,value
2019-04-21T00:06:22.379Z,17.10
2019-04-21T00:16:10.866Z,16.90
2019-04-21T00:26:29.057Z,16.70
2019-04-21T00:36:21.975Z,16.60
2019-04-21T00:46:30.754Z,16.30
2019-04-21T00:56:41.056Z,16.20
2019-04-21T01:06:48.048Z,16.10
2019-04-21T01:16:51.674Z,16.00
2019-04-21T01:26:43.704Z,15.80
2019-04-21T01:36:55.735Z,15.70
2019-04-21T01:47:01.976Z,15.60
2019-04-21T01:57:04.335Z,15.50
2019-04-21T02:07:11.611Z,15.40
2019-04-21T02:17:14.854Z,15.30
2019-04-21T02:27:19.794Z,15.10
2019-04-21T02:57:45.491Z,14.90
2019-04-21T03:17:48.858Z,14.70
2019-04-21T03:27:56.942Z,14.60
2019-04-21T03:37:54.515Z,14.50
2019-04-21T03:48:01.121Z,14.40
2019-04-21T03:58:17.820Z,14.40
2019-04-21T04:08:18.549Z,14.30
2019-04-21T04:18:21.078Z,14.30
2019-04-21T04:28:25.731Z,14.30
2019-04-21T04:38:30.206Z,14.30
2019-04-21T04:48:19.734Z,14.30
2019-04-21T04:58:35.443Z,14.30
2019-04-21T05:08:43.885Z,14.30
2019-04-21T05:18:34.818Z,14.40
2019-04-21T05:28:20.049Z,14.50
2019-04-21T05:38:27.320Z,14.60
2019-04-21T05:48:57.895Z,14.70
2019-04-21T05:58:39.134Z,14.70
2019-04-21T06:08:44.962Z,14.80
2019-04-21T06:18:53.262Z,15.00
2019-04-21T06:28:53.018Z,15.20
2019-04-21T06:39:04.923Z,15.40
2019-04-21T06:59:07.003Z,15.80
2019-04-21T07:19:21.805Z,16.30
2019-04-21T07:29:20.655Z,16.40
2019-04-21T07:39:18.567Z,16.60
2019-04-21T07:49:25.228Z,17.00
2019-04-21T07:59:39.119Z,17.20
2019-04-21T08:09:37.131Z,17.60
2019-04-21T08:19:33.773Z,17.80
2019-04-21T08:29:40.850Z,18.10
2019-04-21T08:39:50.974Z,18.30
2019-04-21T08:49:52.475Z,18.30
2019-04-21T08:59:54.761Z,18.70
2019-04-21T09:09:54.739Z,18.80
2019-04-21T09:19:56.510Z,18.70
2019-04-21T09:29:46.662Z,18.80
2019-04-21T09:39:49.995Z,19.00
2019-04-21T09:49:49.414Z,19.50
2019-04-21T10:00:02.211Z,20.50
2019-04-21T10:09:55.565Z,20.60
2019-04-21T10:19:58.626Z,20.80
2019-04-21T10:30:01.710Z,21.20
2019-04-21T10:40:05.388Z,21.50
2019-04-21T10:50:08.876Z,21.70
2019-04-21T11:00:12.650Z,22.00
2019-04-21T11:10:16.105Z,22.30
2019-04-21T11:20:19.237Z,22.50
2019-04-21T11:30:21.391Z,22.90
2019-04-21T11:40:23.929Z,23.20
2019-04-21T11:50:28.655Z,23.60
2019-04-21T12:00:50.933Z,25.20
2019-04-21T12:10:55.449Z,24.60
2019-04-21T12:20:57.678Z,24.60
2019-04-21T12:31:00.060Z,25.00
2019-04-21T12:41:02.433Z,27.70
2019-04-21T12:51:05.973Z,34.60
2019-04-21T13:01:09.309Z,44.80
2019-04-21T13:11:11.905Z,49.20
2019-04-21T13:21:16.094Z,54.40
2019-04-21T13:31:18.282Z,57.60
2019-04-21T13:41:32.756Z,59.50
2019-04-21T13:51:25.065Z,60.40
2019-04-21T14:01:27.663Z,66.00
2019-04-21T14:11:29.737Z,67.20
2019-04-21T14:21:31.796Z,67.30
2019-04-21T14:31:34.642Z,64.20
2019-04-21T14:41:37.947Z,66.30
2019-04-21T14:51:41.136Z,66.70
2019-04-21T15:01:44.156Z,65.50
2019-04-21T15:11:47.624Z,66.30
2019-04-21T15:21:50.278Z,50.70
2019-04-21T15:31:52.637Z,47.40
2019-04-21T15:41:54.692Z,38.50
2019-04-21T15:51:58.134Z,33.30
2019-04-21T16:02:00.928Z,30.40
2019-04-21T16:12:04.077Z,28.60
2019-04-21T16:22:06.485Z,27.50
2019-04-21T16:32:09.129Z,26.80
2019-04-21T16:42:12.063Z,26.70
2019-04-21T16:52:14.331Z,26.40
2019-04-21T17:02:16.496Z,25.80
2019-04-21T17:12:20.103Z,25.60
2019-04-21T17:22:23.627Z,25.60
2019-04-21T17:32:32.125Z,25.30
2019-04-21T17:42:36.313Z,25.20
2019-04-21T17:52:37.904Z,24.90
2019-04-21T18:03:01.316Z,24.40
2019-04-21T18:12:52.317Z,24.10
2019-04-21T18:22:48.004Z,23.80
2019-04-21T18:32:48.269Z,23.40
2019-04-21T18:43:34.575Z,23.10
2019-04-21T18:53:05.012Z,22.80
2019-04-21T19:03:00.186Z,22.40
2019-04-21T19:13:38.408Z,22.10
2019-04-21T19:23:36.364Z,22.00
2019-04-21T19:33:28.524Z,21.80
2019-04-21T19:43:37.090Z,21.60
2019-04-21T19:53:35.656Z,21.40
2019-04-21T20:03:25.010Z,21.20
2019-04-21T20:14:14.119Z,21.00
2019-04-21T20:23:36.725Z,20.90
2019-04-21T20:34:11.508Z,20.80
2019-04-21T20:44:00.837Z,20.40
2019-04-21T20:53:53.769Z,20.10
2019-04-21T21:04:02.109Z,19.90
2019-04-21T21:14:11.794Z,19.60
2019-04-21T21:24:10.210Z,19.50
2019-04-21T21:34:25.767Z,19.30
2019-04-21T21:44:09.200Z,19.10
2019-04-21T21:54:07.629Z,18.90
2019-04-21T22:04:16.537Z,18.70
2019-04-21T22:14:22.925Z,18.60
2019-04-21T22:24:33.847Z,18.40
2019-04-21T22:34:27.772Z,18.20
2019-04-21T22:44:24.749Z,18.00
2019-04-21T22:54:33.694Z,17.80
2019-04-21T23:04:34.167Z,17.70
2019-04-21T23:14:46.811Z,17.50
2019-04-21T23:24:59.253Z,17.40
2019-04-21T23:34:43.710Z,17.20
2019-04-21T23:44:50.097Z,17.00
2019-04-21T23:54:49.611Z,16.90
